createdAt,value
2023-04-02T07:56:01.419Z,960.2600
2023-04-02T07:57:03.368Z,960.2554
2023-04-02T07:58:05.164Z,960.2500
2023-04-02T07:59:07.067Z,960.2508
2023-04-02T08:00:58.267Z,960.2375
2023-04-02T08:07:21.010Z,960.2500
2023-04-02T08:08:22.905Z,960.2600
2023-04-02T08:09:24.810Z,960.2477
2023-04-02T08:10:26.718Z,960.2315
2023-04-02T08:11:29.758Z,960.2300
2023-04-02T08:12:30.543Z,960.2277
2023-04-02T08:13:32.456Z,960.2292
2023-04-02T08:14:34.368Z,960.2346
2023-04-02T08:15:36.620Z,960.2608
2023-04-02T08:16:38.225Z,960.2785
2023-04-02T08:17:40.081Z,960.3038
2023-04-02T08:18:42.071Z,960.3300
2023-04-02T08:19:54.218Z,960.3431
2023-04-02T08:20:45.816Z,960.3508
2023-04-02T08:21:47.739Z,960.3685
2023-04-02T08:22:49.660Z,960.3730
2023-04-02T08:23:51.538Z,960.3746
2023-04-02T08:24:53.469Z,960.3746
2023-04-02T08:25:55.352Z,960.3800
2023-04-02T08:26:57.273Z,960.3846
2023-04-02T08:27:59.174Z,960.3892
2023-04-02T08:29:01.110Z,960.3877
2023-04-02T08:30:02.994Z,960.3985
2023-04-02T08:31:05.054Z,960.4123
2023-04-02T08:32:06.794Z,960.4300
2023-04-02T08:33:08.778Z,960.4446
2023-04-02T08:34:10.633Z,960.4600
2023-04-02T08:35:13.685Z,960.4861
2023-04-02T08:36:14.488Z,960.4923
2023-04-02T08:37:16.359Z,960.5062
2023-04-02T08:38:18.253Z,960.5146
2023-04-02T08:39:20.187Z,960.5262
2023-04-02T08:40:22.085Z,960.5323
2023-04-02T08:41:24.008Z,960.5377
2023-04-02T08:42:25.930Z,960.4977
2023-04-02T08:43:27.882Z,960.4708
2023-04-02T08:44:29.707Z,960.4539
2023-04-02T08:45:31.647Z,960.4523
2023-04-02T08:46:33.539Z,960.4385
2023-04-02T08:47:35.472Z,960.4308
2023-04-02T08:48:37.326Z,960.4346
2023-04-02T08:49:39.329Z,960.4315
2023-04-02T08:50:41.145Z,960.4492
2023-04-02T08:51:43.101Z,960.4423
2023-04-02T08:52:44.953Z,960.4508
2023-04-02T08:53:46.879Z,960.4485
2023-04-02T08:54:48.759Z,960.4485
2023-04-02T08:55:50.682Z,960.4815
2023-04-02T08:56:52.621Z,960.4692
2023-04-02T08:57:54.507Z,960.4738
2023-04-02T08:58:56.440Z,960.4869
2023-04-02T08:59:58.337Z,960.4908
2023-04-02T09:01:00.225Z,960.4861
2023-04-02T09:02:02.268Z,960.4915
2023-04-02T09:03:04.061Z,960.5139
2023-04-02T09:04:05.953Z,960.5208
2023-04-02T09:05:08.020Z,960.5277
2023-04-02T09:06:10.781Z,960.5385
2023-04-02T09:07:11.670Z,960.5285
2023-04-02T09:08:13.594Z,960.4985
2023-04-02T09:09:15.468Z,960.4792
2023-04-02T09:10:17.432Z,960.5162
2023-04-02T09:11:19.312Z,960.5231
2023-04-02T09:12:21.215Z,960.5262
2023-04-02T09:13:23.102Z,960.5538
2023-04-02T09:14:25.021Z,960.5492
2023-04-02T09:15:26.918Z,960.5662
2023-04-02T09:16:28.938Z,960.5808
2023-04-02T09:17:36.913Z,960.5969
2023-04-02T09:18:32.665Z,960.6054
2023-04-02T09:19:34.545Z,960.6246
2023-04-02T09:20:36.473Z,960.6177
2023-04-02T09:21:38.379Z,960.6185
2023-04-02T09:22:40.284Z,960.6208
2023-04-02T09:23:42.168Z,960.6407
2023-04-02T09:24:44.106Z,960.6523
2023-04-02T09:25:54.125Z,960.6731
2023-04-02T09:26:47.915Z,960.6754
2023-04-02T09:27:49.799Z,960.7007
2023-04-02T09:28:51.735Z,960.7261
2023-04-02T09:29:53.625Z,960.7346
2023-04-02T09:30:55.552Z,960.7408
2023-04-02T09:31:57.480Z,960.7585
2023-04-02T09:32:59.398Z,960.7600
2023-04-02T09:34:01.260Z,960.7823
2023-04-02T09:35:07.465Z,960.7869
2023-04-02T09:36:05.098Z,960.7900
2023-04-02T09:37:07.018Z,960.8108
2023-04-02T09:38:08.879Z,960.8315
2023-04-02T09:39:10.815Z,960.8446
2023-04-02T09:40:12.704Z,960.8515
2023-04-02T09:41:14.643Z,960.8770
2023-04-02T09:42:16.554Z,960.8854
2023-04-02T09:43:18.954Z,960.9031
2023-04-02T09:44:20.336Z,960.9131
2023-04-02T09:45:22.306Z,960.9223
2023-04-02T09:46:24.270Z,960.9230
2023-04-02T09:47:26.130Z,960.9300
2023-04-02T09:48:27.977Z,960.9346
2023-04-02T09:49:29.930Z,960.9400
2023-04-02T09:50:31.808Z,960.9646
2023-04-02T09:51:33.745Z,960.9815
2023-04-02T09:52:35.616Z,960.9962
2023-04-02T09:53:37.552Z,961.0015
2023-04-02T09:54:39.434Z,961.0146
2023-04-02T09:55:41.356Z,961.0354
2023-04-02T09:56:43.274Z,961.0284
2023-04-02T09:57:45.185Z,961.0562
2023-04-02T09:58:47.080Z,961.0585
2023-04-02T09:59:49.017Z,961.0869
2023-04-02T10:00:50.914Z,961.1177
2023-04-02T10:01:52.835Z,961.1208
2023-04-02T10:02:54.754Z,961.1208
2023-04-02T10:03:56.720Z,961.1385
2023-04-02T10:04:58.521Z,961.1392
2023-04-02T10:06:00.489Z,961.1354
2023-04-02T10:07:02.358Z,961.1308
2023-04-02T10:08:04.280Z,961.1446
2023-04-02T10:09:06.158Z,961.1362
2023-04-02T10:10:08.076Z,961.1600
2023-04-02T10:11:10.002Z,961.1623
2023-04-02T10:12:11.891Z,961.1623
2023-04-02T10:13:13.810Z,961.1754
2023-04-02T10:14:15.749Z,961.1885
2023-04-02T10:15:17.617Z,961.1870
2023-04-02T10:16:19.637Z,961.1970
2023-04-02T10:17:22.484Z,961.1885
2023-04-02T10:18:23.368Z,961.2000
2023-04-02T10:19:25.261Z,961.2223
2023-04-02T10:20:27.201Z,961.2361
2023-04-02T10:21:29.067Z,961.2415
2023-04-02T10:22:30.992Z,961.2531
2023-04-02T10:23:32.880Z,961.2208
2023-04-02T10:24:34.812Z,961.2308
2023-04-02T10:25:36.903Z,961.2385
2023-04-02T10:26:38.636Z,961.2354
2023-04-02T10:27:40.534Z,961.2577
2023-04-02T10:28:42.451Z,961.2570
2023-04-02T10:29:44.339Z,961.2623
2023-04-02T10:30:46.372Z,961.2631
2023-04-02T10:31:48.150Z,961.2654
2023-04-02T10:32:50.124Z,961.2747
2023-04-02T10:33:51.973Z,961.2615
2023-04-02T10:34:53.933Z,961.2615
2023-04-02T10:35:55.812Z,961.2285
2023-04-02T10:36:57.741Z,961.2708
2023-04-02T10:37:59.608Z,961.2831
2023-04-02T10:39:01.539Z,961.2785
2023-04-02T10:40:03.428Z,961.3023
2023-04-02T10:41:05.352Z,961.2731
2023-04-02T10:42:07.241Z,961.2839
2023-04-02T10:43:09.171Z,961.2816
2023-04-02T10:44:19.603Z,961.2777
2023-04-02T10:45:12.984Z,961.2923
2023-04-02T10:46:14.906Z,961.3115
2023-04-02T10:47:16.826Z,961.3200
2023-04-02T10:48:18.694Z,961.3054
2023-04-02T10:49:20.676Z,961.3008
2023-04-02T10:50:22.524Z,961.3100
2023-04-02T10:51:24.452Z,961.3100
2023-04-02T10:52:26.417Z,961.3092
2023-04-02T10:53:28.274Z,961.3308
2023-04-02T10:54:30.165Z,961.3423
2023-04-02T10:55:32.086Z,961.3439
2023-04-02T10:56:44.042Z,961.3561
2023-04-02T10:57:36.027Z,961.3515
2023-04-02T10:58:37.784Z,961.3431
2023-04-02T10:59:39.712Z,961.3600
2023-04-02T11:00:41.601Z,961.3754
2023-04-02T11:01:43.591Z,961.3431
2023-04-02T11:02:45.500Z,961.3500
2023-04-02T11:03:47.455Z,961.3561
2023-04-02T11:04:49.251Z,961.3685
2023-04-02T11:05:51.182Z,961.3669
2023-04-02T11:06:58.096Z,961.3877
2023-04-02T11:07:54.999Z,961.3969
2023-04-02T11:08:56.885Z,961.4000
2023-04-02T11:09:58.799Z,961.3939
2023-04-02T11:11:01.822Z,961.4131
2023-04-02T11:12:02.652Z,961.4092
2023-04-02T11:13:04.537Z,961.4153
2023-04-02T11:14:06.749Z,961.4185
2023-04-02T11:15:08.341Z,961.4192
2023-04-02T11:16:10.275Z,961.4308
2023-04-02T11:17:12.141Z,961.4346
2023-04-02T11:18:14.094Z,961.4269
2023-04-02T11:19:15.996Z,961.4131
2023-04-02T11:20:17.909Z,961.4146
2023-04-02T11:21:19.807Z,961.4315
2023-04-02T11:22:21.713Z,961.4554
2023-04-02T11:23:23.668Z,961.4469
2023-04-02T11:24:25.550Z,961.4692
2023-04-02T11:25:27.425Z,961.4692
2023-04-02T11:26:29.371Z,961.4738
2023-04-02T11:27:31.265Z,961.4661
2023-04-02T11:28:33.169Z,961.5015
2023-04-02T11:29:35.383Z,961.5077
2023-04-02T11:30:36.999Z,961.5400
2023-04-02T11:31:38.960Z,961.5192
2023-04-02T11:32:40.818Z,961.5339
2023-04-02T11:33:45.370Z,961.5285
2023-04-02T11:34:44.623Z,961.5316
2023-04-02T11:35:46.603Z,961.5146
2023-04-02T11:36:48.437Z,961.5254
2023-04-02T11:37:52.340Z,961.5523
2023-04-02T11:38:53.342Z,961.5670
2023-04-02T11:39:54.140Z,961.5692
2023-04-02T11:40:56.072Z,961.5369
2023-04-02T11:41:57.984Z,961.5523
2023-04-02T11:42:59.903Z,961.5646
2023-04-02T11:44:01.771Z,961.5754
2023-04-02T11:45:03.705Z,961.5862
2023-04-02T11:46:05.618Z,961.6000
2023-04-02T11:47:07.537Z,961.5923
2023-04-02T11:48:09.431Z,961.6061
2023-04-02T11:49:11.344Z,961.6030
2023-04-02T11:50:13.226Z,961.5977
2023-04-02T11:51:15.162Z,961.5961
2023-04-02T11:52:17.045Z,961.6077
2023-04-02T11:53:19.008Z,961.6169
2023-04-02T11:54:20.880Z,961.6193
2023-04-02T11:55:22.818Z,961.6254
2023-04-02T11:56:24.708Z,961.6208
2023-04-02T11:57:26.690Z,961.6146
2023-04-02T11:58:28.501Z,961.6223
2023-04-02T11:59:30.454Z,961.6146
2023-04-02T12:00:32.344Z,961.6238
2023-04-02T12:01:34.261Z,961.6270
2023-04-02T12:02:36.206Z,961.6192
2023-04-02T12:03:38.081Z,961.6254
2023-04-02T12:04:39.980Z,961.6400
2023-04-02T12:05:41.992Z,961.6600
2023-04-02T12:06:43.792Z,961.6470
2023-04-02T12:07:45.707Z,961.6531
2023-04-02T12:08:57.156Z,961.6454
2023-04-02T12:09:49.607Z,961.6408
2023-04-02T12:10:51.485Z,961.6130
2023-04-02T12:11:53.422Z,961.6092
2023-04-02T12:12:55.297Z,961.6223
2023-04-02T12:13:57.241Z,961.6208
2023-04-02T12:14:59.144Z,961.6254
2023-04-02T12:16:01.069Z,961.6339
2023-04-02T12:17:02.996Z,961.6339
2023-04-02T12:18:04.889Z,961.6516
2023-04-02T12:19:06.755Z,961.6354
2023-04-02T12:20:08.731Z,961.6315
2023-04-02T12:21:10.585Z,961.6254
2023-04-02T12:22:12.502Z,961.6246
2023-04-02T12:23:14.393Z,961.6230
2023-04-02T12:24:16.319Z,961.6262
2023-04-02T12:25:18.215Z,961.6447
2023-04-02T12:26:21.473Z,961.6539
2023-04-02T12:27:23.046Z,961.6516
2023-04-02T12:28:23.962Z,961.6685
2023-04-02T12:29:25.835Z,961.6661
2023-04-02T12:30:27.770Z,961.6600
2023-04-02T12:31:29.775Z,961.6669
2023-04-02T12:32:31.621Z,961.6523
2023-04-02T12:33:33.517Z,961.6623
2023-04-02T12:34:35.380Z,961.6554
2023-04-02T12:35:37.316Z,961.6631
2023-04-02T12:36:39.206Z,961.6623
2023-04-02T12:37:41.149Z,961.6516
2023-04-02T12:38:43.008Z,961.6584
2023-04-02T12:39:44.932Z,961.6631
2023-04-02T12:40:46.870Z,961.6685
2023-04-02T12:41:48.755Z,961.6592
2023-04-02T12:42:50.636Z,961.6623
2023-04-02T12:43:52.568Z,961.6677
2023-04-02T12:44:54.461Z,961.6600
2023-04-02T12:45:56.414Z,961.6769
2023-04-02T12:46:58.285Z,961.6900
2023-04-02T12:48:00.241Z,961.7023
2023-04-02T12:49:02.083Z,961.7108
2023-04-02T12:50:04.020Z,961.7269
2023-04-02T12:51:05.927Z,961.7146
2023-04-02T12:52:07.876Z,961.7085
2023-04-02T12:53:09.712Z,961.7115
2023-04-02T12:54:11.669Z,961.7161
2023-04-02T12:55:13.582Z,961.7015
2023-04-02T12:56:15.509Z,961.7015
2023-04-02T12:57:17.391Z,961.7208
2023-04-02T12:58:19.269Z,961.7123
2023-04-02T12:59:21.156Z,961.7131
2023-04-02T13:00:23.101Z,961.7177
2023-04-02T13:01:25.603Z,961.7192
2023-04-02T13:02:27.120Z,961.7054
2023-04-02T13:03:29.239Z,961.7069
2023-04-02T13:04:30.770Z,961.7200
2023-04-02T13:05:32.694Z,961.7108
2023-04-02T13:06:34.604Z,961.6946
2023-04-02T13:07:36.537Z,961.6846
2023-04-02T13:08:38.407Z,961.6600
2023-04-02T13:09:40.309Z,961.6584
2023-04-02T13:10:42.244Z,961.6754
2023-04-02T13:11:44.145Z,961.6539
2023-04-02T13:12:46.073Z,961.6431
2023-04-02T13:13:47.922Z,961.6254
2023-04-02T13:14:49.853Z,961.6230
2023-04-02T13:15:51.798Z,961.6230
2023-04-02T13:16:53.706Z,961.6270
2023-04-02T13:17:55.613Z,961.6469
2023-04-02T13:18:57.486Z,961.6500
2023-04-02T13:19:59.483Z,961.6315
2023-04-02T13:21:01.295Z,961.6238
2023-04-02T13:22:03.219Z,961.6169
2023-04-02T13:23:05.121Z,961.6053
2023-04-02T13:24:07.028Z,961.5908
2023-04-02T13:25:08.922Z,961.5815
2023-04-02T13:26:10.812Z,961.5777
2023-04-02T13:27:12.746Z,961.5685
2023-04-02T13:28:14.640Z,961.5862
2023-04-02T13:29:16.559Z,961.5939
2023-04-02T13:30:18.456Z,961.6085
2023-04-02T13:31:20.416Z,961.6092
2023-04-02T13:32:22.295Z,961.5992
2023-04-02T13:33:24.212Z,961.6069
2023-04-02T13:34:26.076Z,961.6161
2023-04-02T13:35:28.003Z,961.6223
2023-04-02T13:36:29.891Z,961.6423
2023-04-02T13:37:31.859Z,961.6469
2023-04-02T13:38:33.693Z,961.6462
2023-04-02T13:39:35.713Z,961.6554
2023-04-02T13:40:37.833Z,961.6454
2023-04-02T13:41:39.427Z,961.6439
2023-04-02T13:42:41.349Z,961.6262
2023-04-02T13:43:43.247Z,961.6285
2023-04-02T13:44:45.126Z,961.6238
2023-04-02T13:45:47.125Z,961.6200
2023-04-02T13:46:48.934Z,961.6146
2023-04-02T13:47:50.906Z,961.6161
2023-04-02T13:48:52.778Z,961.6292
2023-04-02T13:49:54.684Z,961.6177
2023-04-02T13:50:56.586Z,961.6154
2023-04-02T13:51:58.574Z,961.6123
2023-04-02T13:53:01.015Z,961.6085
2023-04-02T13:54:06.759Z,961.6100
2023-04-02T13:55:04.339Z,961.6108
2023-04-02T13:56:06.098Z,961.5916
2023-04-02T13:57:08.004Z,961.5931
2023-04-02T13:58:09.902Z,961.5992
2023-04-02T13:59:11.797Z,961.5992
2023-04-02T14:00:13.752Z,961.6123
2023-04-02T14:01:15.691Z,961.6192
2023-04-02T14:02:17.766Z,961.6115
2023-04-02T14:03:19.493Z,961.6308
2023-04-02T14:04:21.453Z,961.6561
2023-04-02T14:05:23.249Z,961.6592
2023-04-02T14:06:25.518Z,961.6777
2023-04-02T14:07:27.080Z,961.6800
2023-04-02T14:08:30.249Z,961.6931
2023-04-02T14:09:30.883Z,961.7062
2023-04-02T14:10:34.618Z,961.7161
2023-04-02T14:11:34.699Z,961.7169
2023-04-02T14:12:36.655Z,961.7108
2023-04-02T14:13:38.508Z,961.7285
2023-04-02T14:14:40.772Z,961.7392
2023-04-02T14:15:42.338Z,961.7385
2023-04-02T14:16:44.286Z,961.7477
2023-04-02T14:17:46.199Z,961.7639
2023-04-02T14:18:48.058Z,961.7877
2023-04-02T14:19:49.954Z,961.7900
2023-04-02T14:20:51.930Z,961.8069
2023-04-02T14:21:54.331Z,961.8130
2023-04-02T14:22:55.705Z,961.8177
2023-04-02T14:23:57.578Z,961.8223
2023-04-02T14:24:59.522Z,961.8239
2023-04-02T14:26:01.416Z,961.8208
2023-04-02T14:27:04.296Z,961.8062
2023-04-02T14:28:05.275Z,961.7992
2023-04-02T14:29:07.165Z,961.7969
2023-04-02T14:30:09.089Z,961.8038
2023-04-02T14:31:11.021Z,961.8162
2023-04-02T14:32:14.404Z,961.8123
2023-04-02T14:33:14.926Z,961.8292
2023-04-02T14:34:16.665Z,961.8277
2023-04-02T14:35:18.611Z,961.8223
2023-04-02T14:36:20.459Z,961.8223
2023-04-02T14:37:22.400Z,961.8308
2023-04-02T14:38:24.472Z,961.8262
2023-04-02T14:39:26.252Z,961.8231
2023-04-02T14:40:28.126Z,961.8170
2023-04-02T14:41:30.077Z,961.8162
2023-04-02T14:42:32.009Z,961.8115
2023-04-02T14:43:33.899Z,961.8231
2023-04-02T14:44:35.761Z,961.8277
2023-04-02T14:45:37.720Z,961.8246
2023-04-02T14:46:39.657Z,961.8292
2023-04-02T14:47:41.542Z,961.8377
2023-04-02T14:48:43.426Z,961.8339
2023-04-02T14:49:45.374Z,961.8377
2023-04-02T14:50:47.726Z,961.8315
2023-04-02T14:51:49.117Z,961.8292
2023-04-02T14:52:51.055Z,961.8285
2023-04-02T14:53:53.006Z,961.8292
2023-04-02T14:54:54.976Z,961.8331
2023-04-02T14:55:56.754Z,961.8385
2023-04-02T14:56:58.783Z,961.8446
2023-04-02T14:58:00.597Z,961.8423
2023-04-02T14:59:03.508Z,961.8531
2023-04-02T15:00:04.405Z,961.8546
2023-04-02T15:01:06.317Z,961.8646
2023-04-02T15:02:08.248Z,961.8777
2023-04-02T15:03:10.191Z,961.8923
2023-04-02T15:04:12.015Z,961.9039
2023-04-02T15:05:13.945Z,961.9161
2023-04-02T15:06:15.880Z,961.9177
2023-04-02T15:07:17.778Z,961.9238
2023-04-02T15:08:19.675Z,961.9438
2023-04-02T15:09:21.591Z,961.9438
2023-04-02T15:10:23.476Z,961.9462
2023-04-02T15:11:27.576Z,961.9423
2023-04-02T15:12:27.268Z,961.9539
2023-04-02T15:13:29.188Z,961.9661
2023-04-02T15:14:31.095Z,961.9723
2023-04-02T15:15:39.278Z,961.9731
2023-04-02T15:16:35.772Z,961.9716
2023-04-02T15:17:36.850Z,961.9823
2023-04-02T15:18:39.743Z,961.9785
2023-04-02T15:19:40.679Z,961.9815
2023-04-02T15:20:42.696Z,961.9823
2023-04-02T15:21:55.621Z,961.9892
2023-04-02T15:22:46.379Z,961.9838
2023-04-02T15:23:48.447Z,961.9785
2023-04-02T15:24:50.195Z,961.9684
2023-04-02T15:25:52.068Z,961.9692
2023-04-02T15:26:53.995Z,961.9531
2023-04-02T15:27:55.856Z,961.9562
2023-04-02T15:28:57.827Z,961.9615
2023-04-02T15:29:59.684Z,961.9700
2023-04-02T15:31:01.612Z,961.9661
2023-04-02T15:32:03.508Z,961.9669
2023-04-02T15:33:05.455Z,961.9731
2023-04-02T15:34:07.303Z,961.9792
2023-04-02T15:35:09.227Z,962.0346
2023-04-02T15:36:11.168Z,962.0361
2023-04-02T15:37:13.100Z,962.0638
2023-04-02T15:38:14.940Z,962.0746
2023-04-02T15:39:16.872Z,962.0792
2023-04-02T15:40:18.740Z,962.0823
2023-04-02T15:41:22.975Z,962.0969
2023-04-02T15:42:22.583Z,962.1000
2023-04-02T15:43:24.492Z,962.1038
2023-04-02T15:44:26.376Z,962.1177
2023-04-02T15:45:29.582Z,962.1230
2023-04-02T15:46:30.299Z,962.1238
2023-04-02T15:47:32.622Z,962.1315
2023-04-02T15:48:34.162Z,962.1477
2023-04-02T15:49:35.962Z,962.1692
2023-04-02T15:50:38.382Z,962.1838
2023-04-02T15:51:39.734Z,962.1923
2023-04-02T15:52:41.641Z,962.1846
2023-04-02T15:53:43.566Z,962.2146
2023-04-02T15:54:45.473Z,962.2346
2023-04-02T15:55:47.386Z,962.2369
2023-04-02T15:56:49.355Z,962.2477
2023-04-02T15:57:51.183Z,962.2500
2023-04-02T15:58:53.088Z,962.2731
2023-04-02T15:59:55.077Z,962.2800
2023-04-02T16:00:56.933Z,962.2923
2023-04-02T16:01:58.860Z,962.3100
2023-04-02T16:03:00.756Z,962.3223
2023-04-02T16:04:02.720Z,962.3323
2023-04-02T16:05:04.540Z,962.3362
2023-04-02T16:06:07.268Z,962.3461
2023-04-02T16:07:08.474Z,962.3515
2023-04-02T16:08:10.431Z,962.3546
2023-04-02T16:09:12.846Z,962.3700
2023-04-02T16:10:14.190Z,962.3762
2023-04-02T16:11:16.158Z,962.3962
2023-04-02T16:12:17.986Z,962.4061
2023-04-02T16:13:19.781Z,962.4116
2023-04-02T16:14:21.767Z,962.4146
2023-04-02T16:15:24.035Z,962.4230
2023-04-02T16:16:25.814Z,962.4323
2023-04-02T16:17:27.652Z,962.4492
2023-04-02T16:18:29.385Z,962.4631
2023-04-02T16:19:31.289Z,962.4654
2023-04-02T16:20:33.453Z,962.4977
2023-04-02T16:21:35.218Z,962.4992
2023-04-02T16:22:38.027Z,962.5200
2023-04-02T16:23:39.081Z,962.5485
2023-04-02T16:24:40.827Z,962.5739
2023-04-02T16:25:42.826Z,962.5877
2023-04-02T16:26:44.651Z,962.6161
2023-04-02T16:27:46.668Z,962.6423
2023-04-02T16:28:48.478Z,962.6631
2023-04-02T16:29:54.201Z,962.6708
2023-04-02T16:30:52.331Z,962.6892
2023-04-02T16:31:54.196Z,962.7031
2023-04-02T16:32:56.227Z,962.7015
2023-04-02T16:33:58.714Z,962.7108
2023-04-02T16:35:15.232Z,962.7200
2023-04-02T16:36:02.894Z,962.7246
2023-04-02T16:37:03.724Z,962.7300
2023-04-02T16:38:05.597Z,962.7354
2023-04-02T16:39:07.536Z,962.7515
2023-04-02T16:40:09.447Z,962.7592
2023-04-02T16:41:11.397Z,962.7816
2023-04-02T16:42:13.227Z,962.7946
2023-04-02T16:43:15.161Z,962.8046
2023-04-02T16:44:17.040Z,962.8231
2023-04-02T16:45:19.356Z,962.8339
2023-04-02T16:46:31.682Z,962.8469
2023-04-02T16:47:22.830Z,962.8646
2023-04-02T16:48:24.685Z,962.8708
2023-04-02T16:49:26.617Z,962.8870
2023-04-02T16:50:28.479Z,962.9016
2023-04-02T16:51:30.403Z,962.9153
2023-04-02T16:52:32.292Z,962.9223
2023-04-02T16:53:34.228Z,962.9362
2023-04-02T16:54:36.121Z,962.9547
2023-04-02T16:55:38.014Z,962.9669
2023-04-02T16:56:39.930Z,962.9846
2023-04-02T16:57:41.843Z,962.9985
2023-04-02T16:58:43.762Z,962.9977
2023-04-02T16:59:45.681Z,963.0170
2023-04-02T17:00:47.567Z,963.0369
2023-04-02T17:01:49.490Z,963.0508
2023-04-02T17:02:51.410Z,963.0615
2023-04-02T17:03:53.557Z,963.0754
2023-04-02T17:04:55.171Z,963.0839
2023-04-02T17:05:57.112Z,963.0984
2023-04-02T17:06:59.278Z,963.1108
2023-04-02T17:08:00.900Z,963.1223
2023-04-02T17:09:02.801Z,963.1469
2023-04-02T17:10:04.693Z,963.1554
2023-04-02T17:11:06.727Z,963.1692
2023-04-02T17:12:08.595Z,963.1938
2023-04-02T17:13:10.456Z,963.2215
2023-04-02T17:14:12.395Z,963.2338
2023-04-02T17:15:20.951Z,963.2608
2023-04-02T17:16:16.154Z,963.2777
2023-04-02T17:17:18.057Z,963.2938
2023-04-02T17:18:20.162Z,963.3069
2023-04-02T17:19:21.880Z,963.3154
2023-04-02T17:20:23.749Z,963.3246
2023-04-02T17:21:25.680Z,963.3331
2023-04-02T17:22:27.571Z,963.3347
2023-04-02T17:23:29.488Z,963.3561
2023-04-02T17:24:31.374Z,963.3654
2023-04-02T17:25:33.301Z,963.3692
2023-04-02T17:26:35.190Z,963.3831
2023-04-02T17:27:37.123Z,963.3977
2023-04-02T17:28:39.011Z,963.4084
2023-04-02T17:29:40.970Z,963.4231
2023-04-02T17:30:42.809Z,963.4431
2023-04-02T17:31:44.770Z,963.4669
2023-04-02T17:32:46.721Z,963.4846
2023-04-02T17:33:48.557Z,963.5008
2023-04-02T17:34:50.436Z,963.5454
2023-04-02T17:35:52.392Z,963.5847
2023-04-02T17:36:55.247Z,963.6015
2023-04-02T17:37:56.195Z,963.6185
2023-04-02T17:38:58.191Z,963.6408
2023-04-02T17:39:59.975Z,963.6577
2023-04-02T17:41:01.856Z,963.6700
2023-04-02T17:42:04.035Z,963.6838
2023-04-02T17:43:05.723Z,963.6892
2023-04-02T17:44:07.790Z,963.7054
2023-04-02T17:45:09.497Z,963.7154
2023-04-02T17:46:11.551Z,963.7285
2023-04-02T17:47:14.385Z,963.7446
2023-04-02T17:48:16.370Z,963.7608
2023-04-02T17:49:17.317Z,963.7739
2023-04-02T17:50:19.078Z,963.7892
2023-04-02T17:51:20.982Z,963.8092
2023-04-02T17:52:22.915Z,963.8223
2023-04-02T17:53:24.760Z,963.8377
2023-04-02T17:54:26.898Z,963.8585
2023-04-02T17:55:28.561Z,963.8746
2023-04-02T17:56:30.988Z,963.8923
2023-04-02T17:57:32.861Z,963.9023
2023-04-02T17:58:34.299Z,963.9123
2023-04-02T17:59:36.205Z,963.9323
2023-04-02T18:00:38.821Z,963.9400
2023-04-02T18:01:40.098Z,963.9554
2023-04-02T18:02:42.041Z,963.9723
2023-04-02T18:03:43.867Z,963.9969
2023-04-02T18:04:45.894Z,964.0046
2023-04-02T18:05:47.757Z,964.0115
2023-04-02T18:06:49.550Z,964.0200
2023-04-02T18:07:51.599Z,964.0223
2023-04-02T18:08:53.343Z,964.0223
2023-04-02T18:09:55.227Z,964.0285
2023-04-02T18:10:57.206Z,964.0262
2023-04-02T18:12:00.534Z,964.0339
2023-04-02T18:23:41.598Z,964.1800
2023-04-02T18:24:43.518Z,964.2015
